sensor_id;sensor_type;location;lat;lon;timestamp;temperature;humidity
6581;DHT22;3324;50.796;7.228;2022-12-17T00:00:04;-0.40;99.90
6581;DHT22;3324;50.796;7.228;2022-12-17T00:02:48;-0.40;99.90
6581;DHT22;3324;50.796;7.228;2022-12-17T00:05:32;-0.40;99.90
6581;DHT22;3324;50.796;7.228;2022-12-17T00:08:16;-0.40;99.90
6581;DHT22;3324;50.796;7.228;2022-12-17T00:11:00;-0.40;99.90
6581;DHT22;3324;50.796;7.228;2022-12-17T00:13:44;-0.40;99.90
6581;DHT22;3324;50.796;7.228;2022-12-17T00:16:28;-0.50;99.90
6581;DHT22;3324;50.796;7.228;2022-12-17T00:19:12;-0.40;99.90
6581;DHT22;3324;50.796;7.228;2022-12-17T00:22:09;-0.50;99.90
6581;DHT22;3324;50.796;7.228;2022-12-17T00:24:54;-0.40;99.90
6581;DHT22;3324;50.796;7.228;2022-12-17T00:27:38;-0.50;99.90
6581;DHT22;3324;50.796;7.228;2022-12-17T00:30:22;-0.50;99.90
6581;DHT22;3324;50.796;7.228;2022-12-17T00:33:06;-0.50;99.90
6581;DHT22;3324;50.796;7.228;2022-12-17T00:35:51;-0.50;99.90
6581;DHT22;3324;50.796;7.228;2022-12-17T00:38:35;-0.50;99.90
6581;DHT22;3324;50.796;7.228;2022-12-17T00:41:20;-0.50;99.90
6581;DHT22;3324;50.796;7.228;2022-12-17T00:44:04;-0.50;99.90
6581;DHT22;3324;50.796;7.228;2022-12-17T00:46:48;-0.60;99.90
6581;DHT22;3324;50.796;7.228;2022-12-17T00:49:32;-0.50;99.90
6581;DHT22;3324;50.796;7.228;2022-12-17T00:52:16;-0.60;99.90
6581;DHT22;3324;50.796;7.228;2022-12-17T00:55:00;-0.60;99.90
6581;DHT22;3324;50.796;7.228;2022-12-17T00:57:44;-0.60;99.90
6581;DHT22;3324;50.796;7.228;2022-12-17T01:00:29;-0.70;99.90
6581;DHT22;3324;50.796;7.228;2022-12-17T01:03:13;-0.70;99.90
6581;DHT22;3324;50.796;7.228;2022-12-17T01:06:01;-0.70;99.90
6581;DHT22;3324;50.796;7.228;2022-12-17T01:08:46;-0.70;99.90
6581;DHT22;3324;50.796;7.228;2022-12-17T01:11:30;-0.70;99.90
6581;DHT22;3324;50.796;7.228;2022-12-17T01:14:14;-0.70;99.90
6581;DHT22;3324;50.796;7.228;2022-12-17T01:16:58;-0.70;99.90
6581;DHT22;3324;50.796;7.228;2022-12-17T01:19:43;-0.80;99.90
6581;DHT22;3324;50.796;7.228;2022-12-17T01:22:27;-0.80;99.90
6581;DHT22;3324;50.796;7.228;2022-12-17T01:25:11;-0.80;99.90
6581;DHT22;3324;50.796;7.228;2022-12-17T01:27:55;-0.90;99.90
6581;DHT22;3324;50.796;7.228;2022-12-17T01:30:39;-0.90;99.90
6581;DHT22;3324;50.796;7.228;2022-12-17T01:33:23;-0.90;99.90
6581;DHT22;3324;50.796;7.228;2022-12-17T01:36:08;-0.80;99.90
6581;DHT22;3324;50.796;7.228;2022-12-17T01:38:52;-0.80;99.90
6581;DHT22;3324;50.796;7.228;2022-12-17T01:41:36;-0.90;99.90
6581;DHT22;3324;50.796;7.228;2022-12-17T01:47:24;-0.80;99.90
6581;DHT22;3324;50.796;7.228;2022-12-17T01:50:09;-0.70;99.90
6581;DHT22;3324;50.796;7.228;2022-12-17T01:52:54;-0.80;99.90
6581;DHT22;3324;50.796;7.228;2022-12-17T01:55:39;-0.80;99.90
6581;DHT22;3324;50.796;7.228;2022-12-17T01:58:24;-0.90;99.90
6581;DHT22;3324;50.796;7.228;2022-12-17T02:01:08;-0.90;99.90
6581;DHT22;3324;50.796;7.228;2022-12-17T02:03:52;-0.90;99.90
6581;DHT22;3324;50.796;7.228;2022-12-17T02:06:37;-0.90;99.90
6581;DHT22;3324;50.796;7.228;2022-12-17T02:09:38;-1.00;99.90
6581;DHT22;3324;50.796;7.228;2022-12-17T02:12:33;-1.00;99.90
6581;DHT22;3324;50.796;7.228;2022-12-17T02:18:10;-1.10;99.90
6581;DHT22;3324;50.796;7.228;2022-12-17T02:21:16;-1.10;99.90
6581;DHT22;3324;50.796;7.228;2022-12-17T02:27:02;-1.10;99.90
6581;DHT22;3324;50.796;7.228;2022-12-17T02:29:58;-1.10;99.90
6581;DHT22;3324;50.796;7.228;2022-12-17T02:32:43;-1.10;99.90
6581;DHT22;3324;50.796;7.228;2022-12-17T02:35:37;-1.20;99.90
6581;DHT22;3324;50.796;7.228;2022-12-17T02:38:23;-1.20;99.90
6581;DHT22;3324;50.796;7.228;2022-12-17T02:41:28;-1.20;99.90
6581;DHT22;3324;50.796;7.228;2022-12-17T02:44:13;-1.20;99.90
6581;DHT22;3324;50.796;7.228;2022-12-17T02:46:58;-1.20;99.90
6581;DHT22;3324;50.796;7.228;2022-12-17T02:49:43;-1.30;99.90
6581;DHT22;3324;50.796;7.228;2022-12-17T02:52:27;-1.30;99.90
6581;DHT22;3324;50.796;7.228;2022-12-17T02:55:13;-1.40;99.90
6581;DHT22;3324;50.796;7.228;2022-12-17T02:57:57;-1.40;99.90
6581;DHT22;3324;50.796;7.228;2022-12-17T03:00:41;-1.30;99.90
6581;DHT22;3324;50.796;7.228;2022-12-17T03:03:25;-1.40;99.90
6581;DHT22;3324;50.796;7.228;2022-12-17T03:06:10;-1.40;99.90
6581;DHT22;3324;50.796;7.228;2022-12-17T03:08:54;-1.40;99.90
6581;DHT22;3324;50.796;7.228;2022-12-17T03:11:38;-1.40;99.90
6581;DHT22;3324;50.796;7.228;2022-12-17T03:14:22;-1.40;99.90
6581;DHT22;3324;50.796;7.228;2022-12-17T03:17:06;-1.40;99.90
6581;DHT22;3324;50.796;7.228;2022-12-17T03:19:51;-1.40;99.90
6581;DHT22;3324;50.796;7.228;2022-12-17T03:22:35;-1.40;99.90
6581;DHT22;3324;50.796;7.228;2022-12-17T03:25:19;-1.40;99.90
6581;DHT22;3324;50.796;7.228;2022-12-17T03:28:04;-1.40;99.90
6581;DHT22;3324;50.796;7.228;2022-12-17T03:30:48;-1.50;99.90
6581;DHT22;3324;50.796;7.228;2022-12-17T03:33:32;-1.50;99.90
6581;DHT22;3324;50.796;7.228;2022-12-17T03:36:16;-1.50;99.90
6581;DHT22;3324;50.796;7.228;2022-12-17T03:39:17;-1.50;99.90
6581;DHT22;3324;50.796;7.228;2022-12-17T03:42:01;-1.50;99.90
6581;DHT22;3324;50.796;7.228;2022-12-17T03:44:45;-1.50;99.90
6581;DHT22;3324;50.796;7.228;2022-12-17T03:47:37;-1.50;99.90
6581;DHT22;3324;50.796;7.228;2022-12-17T03:50:21;-1.50;99.90
6581;DHT22;3324;50.796;7.228;2022-12-17T03:53:05;-1.50;99.90
6581;DHT22;3324;50.796;7.228;2022-12-17T03:55:49;-1.60;99.90
6581;DHT22;3324;50.796;7.228;2022-12-17T03:58:33;-1.60;99.90
6581;DHT22;3324;50.796;7.228;2022-12-17T04:01:17;-1.60;99.90
6581;DHT22;3324;50.796;7.228;2022-12-17T04:04:01;-1.60;99.90
6581;DHT22;3324;50.796;7.228;2022-12-17T04:06:45;-1.60;99.90
6581;DHT22;3324;50.796;7.228;2022-12-17T04:09:29;-1.60;99.90
6581;DHT22;3324;50.796;7.228;2022-12-17T04:12:14;-1.60;99.90
6581;DHT22;3324;50.796;7.228;2022-12-17T04:14:58;-1.60;99.90
6581;DHT22;3324;50.796;7.228;2022-12-17T04:17:42;-1.70;99.90
6581;DHT22;3324;50.796;7.228;2022-12-17T04:20:26;-1.70;99.90
6581;DHT22;3324;50.796;7.228;2022-12-17T04:23:10;-1.70;99.90
6581;DHT22;3324;50.796;7.228;2022-12-17T04:25:55;-1.70;99.90
6581;DHT22;3324;50.796;7.228;2022-12-17T04:28:39;-1.80;99.90
6581;DHT22;3324;50.796;7.228;2022-12-17T04:31:23;-1.80;99.90
6581;DHT22;3324;50.796;7.228;2022-12-17T04:34:07;-1.80;99.90
6581;DHT22;3324;50.796;7.228;2022-12-17T04:36:51;-1.80;99.90
6581;DHT22;3324;50.796;7.228;2022-12-17T04:39:35;-1.80;99.90
6581;DHT22;3324;50.796;7.228;2022-12-17T04:42:19;-1.80;99.90
6581;DHT22;3324;50.796;7.228;2022-12-17T04:45:03;-1.80;99.90
6581;DHT22;3324;50.796;7.228;2022-12-17T04:47:47;-1.80;99.90
6581;DHT22;3324;50.796;7.228;2022-12-17T04:50:31;-1.80;99.90
6581;DHT22;3324;50.796;7.228;2022-12-17T04:53:16;-1.80;99.90
6581;DHT22;3324;50.796;7.228;2022-12-17T04:56:00;-1.70;99.90
6581;DHT22;3324;50.796;7.228;2022-12-17T04:58:45;-1.70;99.90
6581;DHT22;3324;50.796;7.228;2022-12-17T05:01:29;-1.70;99.90
6581;DHT22;3324;50.796;7.228;2022-12-17T05:04:14;-1.70;99.90
6581;DHT22;3324;50.796;7.228;2022-12-17T05:06:58;-1.70;99.90
6581;DHT22;3324;50.796;7.228;2022-12-17T05:09:42;-1.80;99.90
6581;DHT22;3324;50.796;7.228;2022-12-17T05:12:46;-1.80;99.90
6581;DHT22;3324;50.796;7.228;2022-12-17T05:15:30;-1.80;99.90
6581;DHT22;3324;50.796;7.228;2022-12-17T05:18:14;-1.80;99.90
6581;DHT22;3324;50.796;7.228;2022-12-17T05:20:58;-1.80;99.90
6581;DHT22;3324;50.796;7.228;2022-12-17T05:23:42;-1.80;99.90
6581;DHT22;3324;50.796;7.228;2022-12-17T05:26:26;-1.80;99.90
6581;DHT22;3324;50.796;7.228;2022-12-17T05:29:11;-1.80;99.90
6581;DHT22;3324;50.796;7.228;2022-12-17T05:31:55;-1.80;99.90
6581;DHT22;3324;50.796;7.228;2022-12-17T05:34:39;-1.80;99.90
6581;DHT22;3324;50.796;7.228;2022-12-17T05:37:24;-1.90;99.90
6581;DHT22;3324;50.796;7.228;2022-12-17T05:40:08;-1.90;99.90
6581;DHT22;3324;50.796;7.228;2022-12-17T05:42:58;-1.90;99.90
6581;DHT22;3324;50.796;7.228;2022-12-17T05:45:43;-2.00;99.90
6581;DHT22;3324;50.796;7.228;2022-12-17T05:48:27;-2.10;99.90
6581;DHT22;3324;50.796;7.228;2022-12-17T05:51:11;-2.10;99.90
6581;DHT22;3324;50.796;7.228;2022-12-17T05:53:55;-2.10;99.90
6581;DHT22;3324;50.796;7.228;2022-12-17T05:56:40;-2.10;99.90
6581;DHT22;3324;50.796;7.228;2022-12-17T05:59:24;-2.10;99.90
6581;DHT22;3324;50.796;7.228;2022-12-17T06:02:08;-2.10;99.90
6581;DHT22;3324;50.796;7.228;2022-12-17T06:04:54;-2.00;99.90
6581;DHT22;3324;50.796;7.228;2022-12-17T06:07:38;-2.00;99.90
6581;DHT22;3324;50.796;7.228;2022-12-17T06:10:22;-2.00;99.90
6581;DHT22;3324;50.796;7.228;2022-12-17T06:13:07;-2.00;99.90
6581;DHT22;3324;50.796;7.228;2022-12-17T06:15:51;-2.00;99.90
6581;DHT22;3324;50.796;7.228;2022-12-17T06:18:36;-2.00;99.90
6581;DHT22;3324;50.796;7.228;2022-12-17T06:21:20;-2.00;99.90
6581;DHT22;3324;50.796;7.228;2022-12-17T06:24:04;-2.10;99.90
6581;DHT22;3324;50.796;7.228;2022-12-17T06:26:49;-2.10;99.90
6581;DHT22;3324;50.796;7.228;2022-12-17T06:29:33;-2.20;99.90
6581;DHT22;3324;50.796;7.228;2022-12-17T06:32:17;-2.20;99.90
6581;DHT22;3324;50.796;7.228;2022-12-17T06:35:01;-2.20;99.90
6581;DHT22;3324;50.796;7.228;2022-12-17T06:37:45;-2.20;99.90
6581;DHT22;3324;50.796;7.228;2022-12-17T06:40:29;-2.30;99.90
6581;DHT22;3324;50.796;7.228;2022-12-17T06:43:13;-2.30;99.90
6581;DHT22;3324;50.796;7.228;2022-12-17T06:45:58;-2.30;99.90
6581;DHT22;3324;50.796;7.228;2022-12-17T06:48:42;-2.30;99.90
6581;DHT22;3324;50.796;7.228;2022-12-17T06:51:26;-2.30;99.90
6581;DHT22;3324;50.796;7.228;2022-12-17T06:54:10;-2.40;99.90
6581;DHT22;3324;50.796;7.228;2022-12-17T06:56:54;-2.30;99.90
6581;DHT22;3324;50.796;7.228;2022-12-17T06:59:38;-2.30;99.90
6581;DHT22;3324;50.796;7.228;2022-12-17T07:02:22;-2.30;99.90
6581;DHT22;3324;50.796;7.228;2022-12-17T07:05:06;-2.40;99.90
6581;DHT22;3324;50.796;7.228;2022-12-17T07:07:57;-2.40;99.90
6581;DHT22;3324;50.796;7.228;2022-12-17T07:10:41;-2.40;99.90
6581;DHT22;3324;50.796;7.228;2022-12-17T07:13:25;-2.40;99.90
6581;DHT22;3324;50.796;7.228;2022-12-17T07:16:09;-2.40;99.90
6581;DHT22;3324;50.796;7.228;2022-12-17T07:18:54;-2.40;99.90
6581;DHT22;3324;50.796;7.228;2022-12-17T07:21:38;-2.50;99.90
6581;DHT22;3324;50.796;7.228;2022-12-17T07:24:23;-2.50;99.90
6581;DHT22;3324;50.796;7.228;2022-12-17T07:27:07;-2.50;99.90
6581;DHT22;3324;50.796;7.228;2022-12-17T07:29:51;-2.50;99.90
6581;DHT22;3324;50.796;7.228;2022-12-17T07:32:35;-2.60;99.90
6581;DHT22;3324;50.796;7.228;2022-12-17T07:35:19;-2.60;99.90
6581;DHT22;3324;50.796;7.228;2022-12-17T07:38:03;-2.70;99.90
6581;DHT22;3324;50.796;7.228;2022-12-17T07:40:47;-2.70;99.90
6581;DHT22;3324;50.796;7.228;2022-12-17T07:43:31;-2.80;99.90
6581;DHT22;3324;50.796;7.228;2022-12-17T07:46:15;-2.80;99.90
6581;DHT22;3324;50.796;7.228;2022-12-17T07:49:00;-2.80;99.90
6581;DHT22;3324;50.796;7.228;2022-12-17T07:51:43;-2.70;99.90
6581;DHT22;3324;50.796;7.228;2022-12-17T07:54:28;-2.60;99.90
6581;DHT22;3324;50.796;7.228;2022-12-17T07:57:12;-2.70;99.90
6581;DHT22;3324;50.796;7.228;2022-12-17T07:59:56;-2.70;99.90
6581;DHT22;3324;50.796;7.228;2022-12-17T08:02:40;-2.80;99.90
6581;DHT22;3324;50.796;7.228;2022-12-17T08:05:24;-2.70;99.90
6581;DHT22;3324;50.796;7.228;2022-12-17T08:08:09;-2.70;99.90
6581;DHT22;3324;50.796;7.228;2022-12-17T08:10:53;-2.60;99.90
6581;DHT22;3324;50.796;7.228;2022-12-17T08:13:37;-2.60;99.90
6581;DHT22;3324;50.796;7.228;2022-12-17T08:16:38;-2.60;99.90
6581;DHT22;3324;50.796;7.228;2022-12-17T08:19:22;-2.70;99.90
6581;DHT22;3324;50.796;7.228;2022-12-17T08:22:08;-2.70;99.90
6581;DHT22;3324;50.796;7.228;2022-12-17T08:24:52;-2.70;99.90
6581;DHT22;3324;50.796;7.228;2022-12-17T08:27:36;-2.60;99.90
6581;DHT22;3324;50.796;7.228;2022-12-17T08:30:21;-2.60;99.90
6581;DHT22;3324;50.796;7.228;2022-12-17T08:33:05;-2.60;99.90
6581;DHT22;3324;50.796;7.228;2022-12-17T08:35:54;-2.60;99.90
6581;DHT22;3324;50.796;7.228;2022-12-17T08:38:38;-2.60;99.90
6581;DHT22;3324;50.796;7.228;2022-12-17T08:41:23;-2.60;99.90
6581;DHT22;3324;50.796;7.228;2022-12-17T08:44:07;-2.60;99.90
6581;DHT22;3324;50.796;7.228;2022-12-17T08:46:51;-2.60;99.90
6581;DHT22;3324;50.796;7.228;2022-12-17T08:49:35;-2.60;99.90
6581;DHT22;3324;50.796;7.228;2022-12-17T08:52:19;-2.60;99.90
6581;DHT22;3324;50.796;7.228;2022-12-17T08:55:03;-2.60;99.90
6581;DHT22;3324;50.796;7.228;2022-12-17T08:57:55;-2.60;99.90
6581;DHT22;3324;50.796;7.228;2022-12-17T09:00:39;-2.60;99.90
6581;DHT22;3324;50.796;7.228;2022-12-17T09:03:23;-2.60;99.90
6581;DHT22;3324;50.796;7.228;2022-12-17T09:06:07;-2.70;99.90
6581;DHT22;3324;50.796;7.228;2022-12-17T09:08:52;-2.60;99.90
6581;DHT22;3324;50.796;7.228;2022-12-17T09:11:36;-2.50;99.90
6581;DHT22;3324;50.796;7.228;2022-12-17T09:14:20;-2.50;99.90
6581;DHT22;3324;50.796;7.228;2022-12-17T09:17:04;-2.50;99.90
6581;DHT22;3324;50.796;7.228;2022-12-17T09:19:48;-2.50;99.90
6581;DHT22;3324;50.796;7.228;2022-12-17T09:22:33;-2.60;99.90
6581;DHT22;3324;50.796;7.228;2022-12-17T09:25:17;-2.50;99.90
6581;DHT22;3324;50.796;7.228;2022-12-17T09:28:02;-2.50;99.90
6581;DHT22;3324;50.796;7.228;2022-12-17T09:30:46;-2.50;99.90
6581;DHT22;3324;50.796;7.228;2022-12-17T09:33:30;-2.60;99.90
6581;DHT22;3324;50.796;7.228;2022-12-17T09:36:15;-2.60;99.90
6581;DHT22;3324;50.796;7.228;2022-12-17T09:38:58;-2.60;99.90
6581;DHT22;3324;50.796;7.228;2022-12-17T09:48:03;-2.40;99.90
6581;DHT22;3324;50.796;7.228;2022-12-17T09:50:51;-2.50;99.90
6581;DHT22;3324;50.796;7.228;2022-12-17T09:53:36;-2.40;99.90
6581;DHT22;3324;50.796;7.228;2022-12-17T09:56:24;-2.40;99.90
6581;DHT22;3324;50.796;7.228;2022-12-17T10:02:26;-2.30;99.90
6581;DHT22;3324;50.796;7.228;2022-12-17T10:08:05;-2.30;99.90
6581;DHT22;3324;50.796;7.228;2022-12-17T10:10:51;-2.30;99.90
6581;DHT22;3324;50.796;7.228;2022-12-17T10:13:35;-2.20;99.90
6581;DHT22;3324;50.796;7.228;2022-12-17T10:19:14;-2.00;99.90
6581;DHT22;3324;50.796;7.228;2022-12-17T10:22:07;-2.10;99.90
6581;DHT22;3324;50.796;7.228;2022-12-17T10:24:51;-2.10;99.90
6581;DHT22;3324;50.796;7.228;2022-12-17T10:27:35;-2.10;99.90
6581;DHT22;3324;50.796;7.228;2022-12-17T10:30:19;-2.00;99.90
6581;DHT22;3324;50.796;7.228;2022-12-17T10:33:04;-2.00;99.90
6581;DHT22;3324;50.796;7.228;2022-12-17T10:35:49;-1.90;99.90
6581;DHT22;3324;50.796;7.228;2022-12-17T10:38:33;-1.90;99.90
6581;DHT22;3324;50.796;7.228;2022-12-17T10:41:27;-1.90;99.90
6581;DHT22;3324;50.796;7.228;2022-12-17T10:44:29;-1.90;99.90
6581;DHT22;3324;50.796;7.228;2022-12-17T10:47:25;-1.90;99.90
6581;DHT22;3324;50.796;7.228;2022-12-17T10:50:12;-1.90;99.90
6581;DHT22;3324;50.796;7.228;2022-12-17T10:52:56;-1.80;99.90
6581;DHT22;3324;50.796;7.228;2022-12-17T10:55:55;-1.70;99.90
6581;DHT22;3324;50.796;7.228;2022-12-17T10:58:52;-1.30;99.90
6581;DHT22;3324;50.796;7.228;2022-12-17T11:01:38;-0.70;99.90
6581;DHT22;3324;50.796;7.228;2022-12-17T11:04:29;-0.70;99.90
6581;DHT22;3324;50.796;7.228;2022-12-17T11:07:39;-0.70;99.90
6581;DHT22;3324;50.796;7.228;2022-12-17T11:10:25;-1.00;99.90
6581;DHT22;3324;50.796;7.228;2022-12-17T11:15:59;-1.30;99.90
6581;DHT22;3324;50.796;7.228;2022-12-17T11:19:01;-1.30;99.90
6581;DHT22;3324;50.796;7.228;2022-12-17T11:22:06;-1.30;99.90
6581;DHT22;3324;50.796;7.228;2022-12-17T11:25:02;-1.40;99.90
6581;DHT22;3324;50.796;7.228;2022-12-17T11:27:52;-1.30;99.90
6581;DHT22;3324;50.796;7.228;2022-12-17T11:33:58;-1.30;99.90
6581;DHT22;3324;50.796;7.228;2022-12-17T11:36:47;-1.20;99.90
6581;DHT22;3324;50.796;7.228;2022-12-17T11:39:34;-1.20;99.90
6581;DHT22;3324;50.796;7.228;2022-12-17T11:42:52;-1.20;99.90
6581;DHT22;3324;50.796;7.228;2022-12-17T11:49:08;-1.10;99.90
6581;DHT22;3324;50.796;7.228;2022-12-17T11:52:11;-1.00;99.90
6581;DHT22;3324;50.796;7.228;2022-12-17T11:58:03;-0.90;99.90
6581;DHT22;3324;50.796;7.228;2022-12-17T12:03:54;-0.70;99.90
6581;DHT22;3324;50.796;7.228;2022-12-17T12:09:38;-0.70;99.90
6581;DHT22;3324;50.796;7.228;2022-12-17T12:12:34;-0.70;99.90
6581;DHT22;3324;50.796;7.228;2022-12-17T12:15:38;-0.70;99.90
6581;DHT22;3324;50.796;7.228;2022-12-17T12:18:29;-0.80;99.90
6581;DHT22;3324;50.796;7.228;2022-12-17T12:21:18;-0.70;99.90
6581;DHT22;3324;50.796;7.228;2022-12-17T12:24:13;-0.70;99.90
6581;DHT22;3324;50.796;7.228;2022-12-17T12:35:29;-0.60;99.90
6581;DHT22;3324;50.796;7.228;2022-12-17T12:38:15;-0.50;99.90
6581;DHT22;3324;50.796;7.228;2022-12-17T12:41:02;-0.50;99.90
6581;DHT22;3324;50.796;7.228;2022-12-17T12:43:51;-0.50;99.90
6581;DHT22;3324;50.796;7.228;2022-12-17T12:46:41;-0.40;99.90
6581;DHT22;3324;50.796;7.228;2022-12-17T12:52:17;-0.40;99.90
6581;DHT22;3324;50.796;7.228;2022-12-17T12:55:03;-0.40;99.90
6581;DHT22;3324;50.796;7.228;2022-12-17T12:58:00;-0.30;99.90
6581;DHT22;3324;50.796;7.228;2022-12-17T13:11:49;-0.30;99.90
6581;DHT22;3324;50.796;7.228;2022-12-17T13:14:19;-0.30;99.90
6581;DHT22;3324;50.796;7.228;2022-12-17T13:19:16;-0.10;99.90
6581;DHT22;3324;50.796;7.228;2022-12-17T13:21:42;0.00;99.90
6581;DHT22;3324;50.796;7.228;2022-12-17T13:24:11;-0.10;99.90
6581;DHT22;3324;50.796;7.228;2022-12-17T13:37:10;0.00;99.90
6581;DHT22;3324;50.796;7.228;2022-12-17T13:42:31;0.00;99.90
6581;DHT22;3324;50.796;7.228;2022-12-17T13:44:58;0.00;99.90
6581;DHT22;3324;50.796;7.228;2022-12-17T13:47:25;0.10;99.90
6581;DHT22;3324;50.796;7.228;2022-12-17T13:49:52;0.10;99.90
6581;DHT22;3324;50.796;7.228;2022-12-17T13:52:19;0.10;99.90
6581;DHT22;3324;50.796;7.228;2022-12-17T13:54:45;0.00;99.90
6581;DHT22;3324;50.796;7.228;2022-12-17T13:57:21;0.00;99.90
6581;DHT22;3324;50.796;7.228;2022-12-17T13:59:51;0.00;99.90
6581;DHT22;3324;50.796;7.228;2022-12-17T14:02:24;-0.10;99.90
6581;DHT22;3324;50.796;7.228;2022-12-17T14:04:50;-0.20;99.90
6581;DHT22;3324;50.796;7.228;2022-12-17T14:07:16;-0.20;99.90
6581;DHT22;3324;50.796;7.228;2022-12-17T14:09:42;-0.20;99.90
6581;DHT22;3324;50.796;7.228;2022-12-17T14:12:11;-0.30;99.90
6581;DHT22;3324;50.796;7.228;2022-12-17T14:14:47;-0.30;99.90
6581;DHT22;3324;50.796;7.228;2022-12-17T14:17:46;-0.40;99.90
6581;DHT22;3324;50.796;7.228;2022-12-17T14:20:12;-0.50;99.90
6581;DHT22;3324;50.796;7.228;2022-12-17T14:22:38;-0.40;99.90
6581;DHT22;3324;50.796;7.228;2022-12-17T14:25:11;-0.50;99.90
6581;DHT22;3324;50.796;7.228;2022-12-17T14:27:38;-0.50;99.90
6581;DHT22;3324;50.796;7.228;2022-12-17T14:30:18;-0.50;99.90
6581;DHT22;3324;50.796;7.228;2022-12-17T14:32:44;-0.70;99.90
6581;DHT22;3324;50.796;7.228;2022-12-17T14:35:24;-0.70;99.90
6581;DHT22;3324;50.796;7.228;2022-12-17T14:37:49;-0.80;99.90
6581;DHT22;3324;50.796;7.228;2022-12-17T14:40:15;-0.90;99.90
6581;DHT22;3324;50.796;7.228;2022-12-17T14:42:40;-0.90;99.90
6581;DHT22;3324;50.796;7.228;2022-12-17T14:45:27;-0.90;99.90
6581;DHT22;3324;50.796;7.228;2022-12-17T14:52:50;-0.90;99.90
6581;DHT22;3324;50.796;7.228;2022-12-17T14:57:45;-1.00;99.90
6581;DHT22;3324;50.796;7.228;2022-12-17T15:00:11;-1.00;99.90
6581;DHT22;3324;50.796;7.228;2022-12-17T15:02:37;-1.10;99.90
6581;DHT22;3324;50.796;7.228;2022-12-17T15:05:03;-1.10;99.90
6581;DHT22;3324;50.796;7.228;2022-12-17T15:07:29;-1.10;99.90
6581;DHT22;3324;50.796;7.228;2022-12-17T15:09:55;-1.10;99.90
6581;DHT22;3324;50.796;7.228;2022-12-17T15:12:26;-1.10;99.90
6581;DHT22;3324;50.796;7.228;2022-12-17T15:14:51;-1.10;99.90
6581;DHT22;3324;50.796;7.228;2022-12-17T15:17:17;-1.10;99.90
6581;DHT22;3324;50.796;7.228;2022-12-17T15:19:42;-1.10;99.90
6581;DHT22;3324;50.796;7.228;2022-12-17T15:22:11;-1.20;99.90
6581;DHT22;3324;50.796;7.228;2022-12-17T15:24:38;-1.20;99.90
6581;DHT22;3324;50.796;7.228;2022-12-17T15:27:03;-1.20;99.90
6581;DHT22;3324;50.796;7.228;2022-12-17T15:29:29;-1.20;99.90
6581;DHT22;3324;50.796;7.228;2022-12-17T15:31:56;-1.30;99.90
6581;DHT22;3324;50.796;7.228;2022-12-17T15:34:21;-1.30;99.90
6581;DHT22;3324;50.796;7.228;2022-12-17T15:36:47;-1.40;99.90
6581;DHT22;3324;50.796;7.228;2022-12-17T15:39:12;-1.40;99.90
6581;DHT22;3324;50.796;7.228;2022-12-17T15:41:38;-1.40;99.90
6581;DHT22;3324;50.796;7.228;2022-12-17T15:44:22;-1.40;99.90
6581;DHT22;3324;50.796;7.228;2022-12-17T15:46:47;-1.40;99.90
6581;DHT22;3324;50.796;7.228;2022-12-17T15:49:13;-1.40;99.90
6581;DHT22;3324;50.796;7.228;2022-12-17T15:51:38;-1.40;99.90
6581;DHT22;3324;50.796;7.228;2022-12-17T15:54:03;-1.50;99.90
6581;DHT22;3324;50.796;7.228;2022-12-17T15:56:29;-1.50;99.90
6581;DHT22;3324;50.796;7.228;2022-12-17T15:58:58;-1.50;99.90
6581;DHT22;3324;50.796;7.228;2022-12-17T16:01:23;-1.60;99.90
6581;DHT22;3324;50.796;7.228;2022-12-17T16:03:49;-1.60;99.90
6581;DHT22;3324;50.796;7.228;2022-12-17T16:06:17;-1.70;99.90
6581;DHT22;3324;50.796;7.228;2022-12-17T16:08:42;-1.70;99.90
6581;DHT22;3324;50.796;7.228;2022-12-17T16:11:09;-1.70;99.90
6581;DHT22;3324;50.796;7.228;2022-12-17T16:13:35;-1.80;99.90
6581;DHT22;3324;50.796;7.228;2022-12-17T16:16:01;-1.80;99.90
6581;DHT22;3324;50.796;7.228;2022-12-17T16:18:26;-1.90;99.90
6581;DHT22;3324;50.796;7.228;2022-12-17T16:20:52;-1.80;99.90
6581;DHT22;3324;50.796;7.228;2022-12-17T16:23:19;-1.90;99.90
6581;DHT22;3324;50.796;7.228;2022-12-17T16:25:44;-1.90;99.90
6581;DHT22;3324;50.796;7.228;2022-12-17T16:28:10;-1.90;99.90
6581;DHT22;3324;50.796;7.228;2022-12-17T16:30:35;-1.90;99.90
6581;DHT22;3324;50.796;7.228;2022-12-17T16:33:01;-2.00;99.90
6581;DHT22;3324;50.796;7.228;2022-12-17T16:35:26;-2.00;99.90
6581;DHT22;3324;50.796;7.228;2022-12-17T16:37:55;-2.00;99.90
6581;DHT22;3324;50.796;7.228;2022-12-17T16:40:20;-2.00;99.90
6581;DHT22;3324;50.796;7.228;2022-12-17T16:42:46;-2.00;99.90
6581;DHT22;3324;50.796;7.228;2022-12-17T16:45:11;-2.10;99.90
6581;DHT22;3324;50.796;7.228;2022-12-17T16:47:37;-2.10;99.90
6581;DHT22;3324;50.796;7.228;2022-12-17T16:50:03;-2.10;99.90
6581;DHT22;3324;50.796;7.228;2022-12-17T16:52:29;-2.20;99.90
6581;DHT22;3324;50.796;7.228;2022-12-17T16:54:54;-2.20;99.90
6581;DHT22;3324;50.796;7.228;2022-12-17T16:57:20;-2.20;99.90
6581;DHT22;3324;50.796;7.228;2022-12-17T16:59:45;-2.20;99.90
6581;DHT22;3324;50.796;7.228;2022-12-17T17:02:12;-2.20;99.90
6581;DHT22;3324;50.796;7.228;2022-12-17T17:04:38;-2.20;99.90
6581;DHT22;3324;50.796;7.228;2022-12-17T17:07:04;-2.20;99.90
6581;DHT22;3324;50.796;7.228;2022-12-17T17:09:29;-2.30;99.90
6581;DHT22;3324;50.796;7.228;2022-12-17T17:11:55;-2.30;99.90
6581;DHT22;3324;50.796;7.228;2022-12-17T17:14:22;-2.30;99.90
6581;DHT22;3324;50.796;7.228;2022-12-17T17:16:48;-2.30;99.90
6581;DHT22;3324;50.796;7.228;2022-12-17T17:19:13;-2.20;99.90
6581;DHT22;3324;50.796;7.228;2022-12-17T17:21:51;-2.30;99.90
6581;DHT22;3324;50.796;7.228;2022-12-17T17:24:18;-2.30;99.90
6581;DHT22;3324;50.796;7.228;2022-12-17T17:26:45;-2.30;99.90
6581;DHT22;3324;50.796;7.228;2022-12-17T17:29:11;-2.30;99.90
6581;DHT22;3324;50.796;7.228;2022-12-17T17:31:37;-2.30;99.90
6581;DHT22;3324;50.796;7.228;2022-12-17T17:34:06;-2.40;99.90
6581;DHT22;3324;50.796;7.228;2022-12-17T17:36:32;-2.40;99.90
6581;DHT22;3324;50.796;7.228;2022-12-17T17:38:59;-2.40;99.90
6581;DHT22;3324;50.796;7.228;2022-12-17T17:41:26;-2.50;99.90
6581;DHT22;3324;50.796;7.228;2022-12-17T17:43:53;-2.50;99.90
6581;DHT22;3324;50.796;7.228;2022-12-17T17:46:19;-2.50;99.90
6581;DHT22;3324;50.796;7.228;2022-12-17T17:48:46;-2.50;99.90
6581;DHT22;3324;50.796;7.228;2022-12-17T17:53:43;-2.60;99.90
6581;DHT22;3324;50.796;7.228;2022-12-17T17:56:09;-2.60;99.90
6581;DHT22;3324;50.796;7.228;2022-12-17T17:58:41;-2.70;99.90
6581;DHT22;3324;50.796;7.228;2022-12-17T18:01:07;-2.70;99.90
6581;DHT22;3324;50.796;7.228;2022-12-17T18:03:33;-2.70;99.90
6581;DHT22;3324;50.796;7.228;2022-12-17T18:06:03;-2.70;99.90
6581;DHT22;3324;50.796;7.228;2022-12-17T18:08:33;-2.80;99.90
6581;DHT22;3324;50.796;7.228;2022-12-17T18:10:59;-2.80;99.90
6581;DHT22;3324;50.796;7.228;2022-12-17T18:13:24;-2.80;99.90
6581;DHT22;3324;50.796;7.228;2022-12-17T18:16:09;-2.80;99.90
6581;DHT22;3324;50.796;7.228;2022-12-17T18:18:35;-2.90;99.90
6581;DHT22;3324;50.796;7.228;2022-12-17T18:21:04;-2.90;99.90
6581;DHT22;3324;50.796;7.228;2022-12-17T18:23:30;-2.80;99.90
6581;DHT22;3324;50.796;7.228;2022-12-17T18:26:02;-2.90;99.90
6581;DHT22;3324;50.796;7.228;2022-12-17T18:28:28;-2.90;99.90
6581;DHT22;3324;50.796;7.228;2022-12-17T18:30:53;-2.90;99.90
6581;DHT22;3324;50.796;7.228;2022-12-17T18:33:19;-2.90;99.90
6581;DHT22;3324;50.796;7.228;2022-12-17T18:35:44;-3.00;99.90
6581;DHT22;3324;50.796;7.228;2022-12-17T18:38:10;-3.00;99.90
6581;DHT22;3324;50.796;7.228;2022-12-17T18:40:35;-3.00;99.90
6581;DHT22;3324;50.796;7.228;2022-12-17T18:43:01;-3.00;99.90
6581;DHT22;3324;50.796;7.228;2022-12-17T18:45:45;-3.00;99.90
6581;DHT22;3324;50.796;7.228;2022-12-17T18:48:10;-3.10;99.90
6581;DHT22;3324;50.796;7.228;2022-12-17T18:50:36;-3.10;99.90
6581;DHT22;3324;50.796;7.228;2022-12-17T18:53:01;-3.10;99.90
6581;DHT22;3324;50.796;7.228;2022-12-17T18:55:27;-3.10;99.90